Strona główna
METAR-TAF:

METAR-TAF

Lotnisko :

Harrisburg, Pensylwania, Stany Zjednoczone

Szerokość geograficzna: 40-13-02N, Długość geograficzna: 076-51-05W, wysokość: 106 m

Aktualna obserwacja pogody

Raport powstał 56 minut temu, godzina 21:56 UTC
Wiatr 5 kt od północno-północny zachód
Temperatura 20°C
Wilgotność 17%
Ciśnienie 1015 hPa
Widzialność: 16.1 km
bezchmurnie

METAR: KCXY 062156Z 34005KT 10SM CLR 20/M06 A2998 RMK AO2 SLP154 T02001061

czas: 18:52 (22:52 UTC)


TAF: brakujący

Obserwacja i prognoza pogody dla ponad 4000 lotnisk (raport METAR i TAF).

Dostępne stacje oznaczono żółtymi i czerwonymi punktami na mapie.

Najedź kursorem aby zobaczyć nazwę stacji.

Kliknij aby zobaczyć obserwacje i prognozy pogody.

Aby zmienić mapę: kliknij na zielony przycisk z czarnym krzyżykiem, aby powiększyć; na zielony przycisk z myślnikiem, aby pomniejszyć; na zielone strzałki, aby przejść do map sąsiednich.


METAR-TAF: